sensor_id;sensor_type;location;lat;lon;timestamp;P1;durP1;ratioP1;P2;durP2;ratioP2
11151;SDS011;5630;49.342;10.802;2023-06-22T00:01:56;9.50;;;8.60;;
11151;SDS011;5630;49.342;10.802;2023-06-22T00:04:21;10.97;;;8.87;;
11151;SDS011;5630;49.342;10.802;2023-06-22T00:06:47;9.30;;;8.20;;
11151;SDS011;5630;49.342;10.802;2023-06-22T00:09:12;10.87;;;9.13;;
11151;SDS011;5630;49.342;10.802;2023-06-22T00:11:38;9.90;;;8.20;;
11151;SDS011;5630;49.342;10.802;2023-06-22T00:14:04;9.20;;;8.40;;
11151;SDS011;5630;49.342;10.802;2023-06-22T00:16:31;10.03;;;9.03;;
11151;SDS011;5630;49.342;10.802;2023-06-22T00:18:57;9.87;;;8.97;;
11151;SDS011;5630;49.342;10.802;2023-06-22T00:21:29;9.07;;;8.17;;
11151;SDS011;5630;49.342;10.802;2023-06-22T00:23:55;10.60;;;9.60;;
11151;SDS011;5630;49.342;10.802;2023-06-22T00:26:22;9.00;;;8.07;;
11151;SDS011;5630;49.342;10.802;2023-06-22T00:28:48;9.37;;;8.57;;
11151;SDS011;5630;49.342;10.802;2023-06-22T00:31:14;9.23;;;8.43;;
11151;SDS011;5630;49.342;10.802;2023-06-22T00:33:39;10.47;;;8.50;;
11151;SDS011;5630;49.342;10.802;2023-06-22T00:36:05;10.80;;;8.60;;
11151;SDS011;5630;49.342;10.802;2023-06-22T00:38:32;8.93;;;8.13;;
11151;SDS011;5630;49.342;10.802;2023-06-22T00:40:58;9.93;;;8.93;;
11151;SDS011;5630;49.342;10.802;2023-06-22T00:43:24;8.73;;;7.93;;
11151;SDS011;5630;49.342;10.802;2023-06-22T00:45:49;9.03;;;8.23;;
11151;SDS011;5630;49.342;10.802;2023-06-22T00:48:15;8.57;;;7.80;;
11151;SDS011;5630;49.342;10.802;2023-06-22T00:50:40;9.53;;;8.63;;
11151;SDS011;5630;49.342;10.802;2023-06-22T00:53:07;9.30;;;7.83;;
11151;SDS011;5630;49.342;10.802;2023-06-22T00:55:35;8.33;;;7.53;;
11151;SDS011;5630;49.342;10.802;2023-06-22T00:58:07;9.60;;;8.70;;
11151;SDS011;5630;49.342;10.802;2023-06-22T01:00:35;11.73;;;9.27;;
11151;SDS011;5630;49.342;10.802;2023-06-22T01:03:01;9.57;;;8.63;;
11151;SDS011;5630;49.342;10.802;2023-06-22T01:05:28;10.37;;;9.47;;
11151;SDS011;5630;49.342;10.802;2023-06-22T01:16:14;9.53;;;8.63;;
11151;SDS011;5630;49.342;10.802;2023-06-22T01:18:53;12.10;;;8.70;;
11151;SDS011;5630;49.342;10.802;2023-06-22T01:21:22;13.00;;;9.80;;
11151;SDS011;5630;49.342;10.802;2023-06-22T01:23:51;10.07;;;9.17;;
11151;SDS011;5630;49.342;10.802;2023-06-22T01:26:28;14.00;;;9.77;;
11151;SDS011;5630;49.342;10.802;2023-06-22T01:29:00;10.83;;;8.80;;
11151;SDS011;5630;49.342;10.802;2023-06-22T01:31:28;12.70;;;10.00;;
11151;SDS011;5630;49.342;10.802;2023-06-22T01:33:57;11.07;;;9.53;;
11151;SDS011;5630;49.342;10.802;2023-06-22T01:36:25;12.17;;;8.90;;
11151;SDS011;5630;49.342;10.802;2023-06-22T01:38:52;11.43;;;9.33;;
11151;SDS011;5630;49.342;10.802;2023-06-22T01:41:18;10.97;;;9.87;;
11151;SDS011;5630;49.342;10.802;2023-06-22T01:43:45;10.37;;;9.37;;
11151;SDS011;5630;49.342;10.802;2023-06-22T01:46:12;12.57;;;9.80;;
11151;SDS011;5630;49.342;10.802;2023-06-22T01:48:38;11.43;;;9.83;;
11151;SDS011;5630;49.342;10.802;2023-06-22T01:51:04;10.83;;;9.73;;
11151;SDS011;5630;49.342;10.802;2023-06-22T01:53:30;11.23;;;10.13;;
11151;SDS011;5630;49.342;10.802;2023-06-22T01:55:56;11.17;;;10.07;;
11151;SDS011;5630;49.342;10.802;2023-06-22T01:58:27;13.57;;;10.37;;
11151;SDS011;5630;49.342;10.802;2023-06-22T02:00:58;14.03;;;10.23;;
11151;SDS011;5630;49.342;10.802;2023-06-22T02:03:48;10.80;;;9.53;;
11151;SDS011;5630;49.342;10.802;2023-06-22T02:06:23;11.40;;;9.87;;
11151;SDS011;5630;49.342;10.802;2023-06-22T02:08:57;10.83;;;9.73;;
11151;SDS011;5630;49.342;10.802;2023-06-22T02:11:27;11.17;;;9.97;;
11151;SDS011;5630;49.342;10.802;2023-06-22T02:13:54;11.93;;;10.77;;
11151;SDS011;5630;49.342;10.802;2023-06-22T02:16:22;11.80;;;10.60;;
11151;SDS011;5630;49.342;10.802;2023-06-22T02:18:48;14.00;;;10.73;;
11151;SDS011;5630;49.342;10.802;2023-06-22T02:21:18;11.30;;;10.10;;
11151;SDS011;5630;49.342;10.802;2023-06-22T02:23:44;11.23;;;10.23;;
11151;SDS011;5630;49.342;10.802;2023-06-22T02:26:09;11.23;;;10.10;;
11151;SDS011;5630;49.342;10.802;2023-06-22T02:28:35;12.43;;;10.37;;
11151;SDS011;5630;49.342;10.802;2023-06-22T02:31:01;12.60;;;10.30;;
11151;SDS011;5630;49.342;10.802;2023-06-22T02:33:26;12.93;;;10.70;;
11151;SDS011;5630;49.342;10.802;2023-06-22T02:35:52;12.03;;;10.83;;
11151;SDS011;5630;49.342;10.802;2023-06-22T02:38:18;10.97;;;9.97;;
11151;SDS011;5630;49.342;10.802;2023-06-22T02:40:45;12.40;;;10.97;;
11151;SDS011;5630;49.342;10.802;2023-06-22T02:43:10;12.97;;;11.60;;
11151;SDS011;5630;49.342;10.802;2023-06-22T02:45:36;12.90;;;11.40;;
11151;SDS011;5630;49.342;10.802;2023-06-22T02:48:02;13.50;;;11.47;;
11151;SDS011;5630;49.342;10.802;2023-06-22T02:50:27;12.93;;;11.37;;
11151;SDS011;5630;49.342;10.802;2023-06-22T02:52:53;13.03;;;11.77;;
11151;SDS011;5630;49.342;10.802;2023-06-22T02:55:18;13.63;;;12.33;;
11151;SDS011;5630;49.342;10.802;2023-06-22T02:57:44;13.07;;;11.77;;
11151;SDS011;5630;49.342;10.802;2023-06-22T03:00:12;14.47;;;11.33;;
11151;SDS011;5630;49.342;10.802;2023-06-22T03:02:42;16.10;;;11.70;;
11151;SDS011;5630;49.342;10.802;2023-06-22T03:05:12;14.30;;;11.33;;
11151;SDS011;5630;49.342;10.802;2023-06-22T03:07:43;13.00;;;11.70;;
11151;SDS011;5630;49.342;10.802;2023-06-22T03:10:09;17.17;;;13.37;;
11151;SDS011;5630;49.342;10.802;2023-06-22T03:12:35;14.90;;;12.40;;
11151;SDS011;5630;49.342;10.802;2023-06-22T03:15:07;13.30;;;12.00;;
11151;SDS011;5630;49.342;10.802;2023-06-22T03:17:35;13.70;;;12.03;;
11151;SDS011;5630;49.342;10.802;2023-06-22T03:20:01;14.30;;;12.80;;
11151;SDS011;5630;49.342;10.802;2023-06-22T03:22:34;13.03;;;11.73;;
11151;SDS011;5630;49.342;10.802;2023-06-22T03:25:00;15.43;;;12.53;;
11151;SDS011;5630;49.342;10.802;2023-06-22T03:27:26;12.40;;;11.10;;
11151;SDS011;5630;49.342;10.802;2023-06-22T03:29:52;19.47;;;13.13;;
11151;SDS011;5630;49.342;10.802;2023-06-22T03:32:18;13.53;;;12.03;;
11151;SDS011;5630;49.342;10.802;2023-06-22T03:34:43;17.73;;;12.17;;
11151;SDS011;5630;49.342;10.802;2023-06-22T03:37:12;14.50;;;12.33;;
11151;SDS011;5630;49.342;10.802;2023-06-22T03:39:38;16.70;;;12.90;;
11151;SDS011;5630;49.342;10.802;2023-06-22T03:42:04;16.87;;;12.90;;
11151;SDS011;5630;49.342;10.802;2023-06-22T03:44:30;16.33;;;13.20;;
11151;SDS011;5630;49.342;10.802;2023-06-22T03:46:56;14.93;;;12.73;;
11151;SDS011;5630;49.342;10.802;2023-06-22T03:49:21;17.03;;;13.40;;
11151;SDS011;5630;49.342;10.802;2023-06-22T03:51:47;15.33;;;13.03;;
11151;SDS011;5630;49.342;10.802;2023-06-22T03:54:12;14.50;;;12.13;;
11151;SDS011;5630;49.342;10.802;2023-06-22T03:56:38;14.03;;;11.73;;
11151;SDS011;5630;49.342;10.802;2023-06-22T03:59:03;12.43;;;11.20;;
11151;SDS011;5630;49.342;10.802;2023-06-22T04:01:29;13.60;;;12.13;;
11151;SDS011;5630;49.342;10.802;2023-06-22T04:03:55;11.70;;;10.60;;
11151;SDS011;5630;49.342;10.802;2023-06-22T04:06:20;11.73;;;10.53;;
11151;SDS011;5630;49.342;10.802;2023-06-22T04:08:47;13.43;;;11.97;;
11151;SDS011;5630;49.342;10.802;2023-06-22T04:11:15;14.60;;;12.43;;
11151;SDS011;5630;49.342;10.802;2023-06-22T04:13:42;19.60;;;12.80;;
11151;SDS011;5630;49.342;10.802;2023-06-22T04:16:07;14.10;;;12.57;;
11151;SDS011;5630;49.342;10.802;2023-06-22T04:18:33;15.00;;;13.40;;
11151;SDS011;5630;49.342;10.802;2023-06-22T04:20:59;13.70;;;12.00;;
11151;SDS011;5630;49.342;10.802;2023-06-22T04:23:24;15.97;;;12.10;;
11151;SDS011;5630;49.342;10.802;2023-06-22T04:25:50;18.20;;;12.03;;
11151;SDS011;5630;49.342;10.802;2023-06-22T04:28:16;15.10;;;13.53;;
11151;SDS011;5630;49.342;10.802;2023-06-22T04:30:42;14.77;;;12.53;;
11151;SDS011;5630;49.342;10.802;2023-06-22T04:33:14;14.13;;;11.23;;
11151;SDS011;5630;49.342;10.802;2023-06-22T04:35:40;11.50;;;10.50;;
11151;SDS011;5630;49.342;10.802;2023-06-22T04:38:07;16.10;;;12.90;;
11151;SDS011;5630;49.342;10.802;2023-06-22T04:40:32;15.23;;;12.77;;
11151;SDS011;5630;49.342;10.802;2023-06-22T04:42:58;14.17;;;12.57;;
11151;SDS011;5630;49.342;10.802;2023-06-22T04:45:27;13.87;;;12.43;;
11151;SDS011;5630;49.342;10.802;2023-06-22T04:47:54;12.43;;;11.00;;
11151;SDS011;5630;49.342;10.802;2023-06-22T04:50:19;16.87;;;12.77;;
11151;SDS011;5630;49.342;10.802;2023-06-22T04:52:46;13.40;;;12.10;;
11151;SDS011;5630;49.342;10.802;2023-06-22T04:55:12;17.73;;;12.57;;
11151;SDS011;5630;49.342;10.802;2023-06-22T04:57:45;7.87;;;5.70;;
11151;SDS011;5630;49.342;10.802;2023-06-22T05:00:14;4.67;;;4.20;;
11151;SDS011;5630;49.342;10.802;2023-06-22T05:02:44;6.20;;;5.60;;
11151;SDS011;5630;49.342;10.802;2023-06-22T05:05:11;7.70;;;6.43;;
11151;SDS011;5630;49.342;10.802;2023-06-22T05:07:47;7.27;;;6.40;;
11151;SDS011;5630;49.342;10.802;2023-06-22T05:10:15;10.80;;;9.70;;
11151;SDS011;5630;49.342;10.802;2023-06-22T05:12:42;9.43;;;7.17;;
11151;SDS011;5630;49.342;10.802;2023-06-22T05:15:08;10.03;;;8.30;;
11151;SDS011;5630;49.342;10.802;2023-06-22T05:17:34;7.00;;;6.40;;
11151;SDS011;5630;49.342;10.802;2023-06-22T05:20:01;14.83;;;9.07;;
11151;SDS011;5630;49.342;10.802;2023-06-22T05:22:27;11.17;;;8.93;;
11151;SDS011;5630;49.342;10.802;2023-06-22T05:24:53;9.87;;;8.27;;
11151;SDS011;5630;49.342;10.802;2023-06-22T05:27:18;12.40;;;9.40;;
11151;SDS011;5630;49.342;10.802;2023-06-22T05:29:44;11.60;;;7.80;;
11151;SDS011;5630;49.342;10.802;2023-06-22T05:32:09;9.33;;;7.97;;
11151;SDS011;5630;49.342;10.802;2023-06-22T05:34:35;8.57;;;7.33;;
11151;SDS011;5630;49.342;10.802;2023-06-22T05:37:01;9.80;;;8.30;;
11151;SDS011;5630;49.342;10.802;2023-06-22T05:39:27;10.03;;;7.67;;
11151;SDS011;5630;49.342;10.802;2023-06-22T05:41:53;10.33;;;7.97;;
11151;SDS011;5630;49.342;10.802;2023-06-22T05:44:18;10.17;;;8.33;;
11151;SDS011;5630;49.342;10.802;2023-06-22T05:46:44;8.97;;;7.80;;
11151;SDS011;5630;49.342;10.802;2023-06-22T05:49:11;10.27;;;8.90;;
11151;SDS011;5630;49.342;10.802;2023-06-22T05:51:37;11.57;;;10.47;;
11151;SDS011;5630;49.342;10.802;2023-06-22T05:54:03;13.87;;;10.77;;
11151;SDS011;5630;49.342;10.802;2023-06-22T05:56:29;13.10;;;10.73;;
11151;SDS011;5630;49.342;10.802;2023-06-22T05:58:55;13.93;;;10.97;;
11151;SDS011;5630;49.342;10.802;2023-06-22T06:01:20;11.23;;;10.13;;
11151;SDS011;5630;49.342;10.802;2023-06-22T06:03:46;13.43;;;11.17;;
11151;SDS011;5630;49.342;10.802;2023-06-22T06:06:11;14.50;;;10.43;;
11151;SDS011;5630;49.342;10.802;2023-06-22T06:08:38;13.50;;;10.07;;
11151;SDS011;5630;49.342;10.802;2023-06-22T06:11:04;12.20;;;10.90;;
11151;SDS011;5630;49.342;10.802;2023-06-22T06:13:29;14.43;;;9.80;;
11151;SDS011;5630;49.342;10.802;2023-06-22T06:15:55;11.97;;;10.00;;
11151;SDS011;5630;49.342;10.802;2023-06-22T06:18:22;10.70;;;9.60;;
11151;SDS011;5630;49.342;10.802;2023-06-22T06:20:48;10.50;;;9.60;;
11151;SDS011;5630;49.342;10.802;2023-06-22T06:23:14;10.33;;;9.23;;
11151;SDS011;5630;49.342;10.802;2023-06-22T06:25:39;10.70;;;9.60;;
11151;SDS011;5630;49.342;10.802;2023-06-22T06:28:05;10.83;;;9.73;;
11151;SDS011;5630;49.342;10.802;2023-06-22T06:30:31;11.00;;;9.53;;
11151;SDS011;5630;49.342;10.802;2023-06-22T06:32:57;11.57;;;9.20;;
11151;SDS011;5630;49.342;10.802;2023-06-22T06:35:22;11.97;;;9.73;;
11151;SDS011;5630;49.342;10.802;2023-06-22T06:37:49;11.77;;;8.67;;
11151;SDS011;5630;49.342;10.802;2023-06-22T06:40:16;10.17;;;9.03;;
11151;SDS011;5630;49.342;10.802;2023-06-22T06:42:43;11.77;;;9.00;;
11151;SDS011;5630;49.342;10.802;2023-06-22T06:45:20;12.23;;;9.10;;
11151;SDS011;5630;49.342;10.802;2023-06-22T06:47:50;12.27;;;9.10;;
11151;SDS011;5630;49.342;10.802;2023-06-22T06:50:17;10.23;;;8.33;;
11151;SDS011;5630;49.342;10.802;2023-06-22T06:52:43;12.60;;;8.47;;
11151;SDS011;5630;49.342;10.802;2023-06-22T06:55:09;10.67;;;8.80;;
11151;SDS011;5630;49.342;10.802;2023-06-22T06:57:37;9.33;;;8.10;;
11151;SDS011;5630;49.342;10.802;2023-06-22T07:00:03;9.87;;;8.00;;
11151;SDS011;5630;49.342;10.802;2023-06-22T07:02:37;11.70;;;8.03;;
11151;SDS011;5630;49.342;10.802;2023-06-22T07:05:06;11.97;;;8.23;;
11151;SDS011;5630;49.342;10.802;2023-06-22T07:07:32;9.90;;;8.30;;
11151;SDS011;5630;49.342;10.802;2023-06-22T07:09:58;9.13;;;7.43;;
11151;SDS011;5630;49.342;10.802;2023-06-22T07:12:24;9.50;;;7.60;;
11151;SDS011;5630;49.342;10.802;2023-06-22T07:14:50;9.30;;;7.57;;
11151;SDS011;5630;49.342;10.802;2023-06-22T07:17:16;11.00;;;7.77;;
11151;SDS011;5630;49.342;10.802;2023-06-22T07:19:42;9.30;;;7.23;;
11151;SDS011;5630;49.342;10.802;2023-06-22T07:22:07;7.60;;;6.80;;
11151;SDS011;5630;49.342;10.802;2023-06-22T07:24:33;9.63;;;7.00;;
11151;SDS011;5630;49.342;10.802;2023-06-22T07:26:59;7.50;;;6.70;;
11151;SDS011;5630;49.342;10.802;2023-06-22T07:29:25;10.97;;;6.40;;
11151;SDS011;5630;49.342;10.802;2023-06-22T07:31:51;8.23;;;6.27;;
11151;SDS011;5630;49.342;10.802;2023-06-22T07:34:18;10.23;;;7.10;;
11151;SDS011;5630;49.342;10.802;2023-06-22T07:36:44;9.10;;;6.20;;
11151;SDS011;5630;49.342;10.802;2023-06-22T07:39:10;6.53;;;5.93;;
11151;SDS011;5630;49.342;10.802;2023-06-22T07:41:36;9.80;;;6.50;;
11151;SDS011;5630;49.342;10.802;2023-06-22T07:44:03;8.07;;;6.10;;
11151;SDS011;5630;49.342;10.802;2023-06-22T07:46:29;8.47;;;6.30;;
11151;SDS011;5630;49.342;10.802;2023-06-22T07:48:55;8.07;;;5.97;;
11151;SDS011;5630;49.342;10.802;2023-06-22T07:51:21;6.80;;;6.10;;
11151;SDS011;5630;49.342;10.802;2023-06-22T07:53:47;8.43;;;5.97;;
11151;SDS011;5630;49.342;10.802;2023-06-22T07:56:13;7.63;;;5.97;;
11151;SDS011;5630;49.342;10.802;2023-06-22T07:58:43;8.17;;;5.90;;
11151;SDS011;5630;49.342;10.802;2023-06-22T08:01:09;7.23;;;5.63;;
11151;SDS011;5630;49.342;10.802;2023-06-22T08:03:35;9.17;;;6.43;;
11151;SDS011;5630;49.342;10.802;2023-06-22T08:06:01;10.43;;;6.50;;
11151;SDS011;5630;49.342;10.802;2023-06-22T08:08:26;6.47;;;5.60;;
11151;SDS011;5630;49.342;10.802;2023-06-22T08:10:52;8.50;;;6.00;;
11151;SDS011;5630;49.342;10.802;2023-06-22T08:13:18;9.57;;;6.10;;
11151;SDS011;5630;49.342;10.802;2023-06-22T08:15:44;8.23;;;5.97;;
11151;SDS011;5630;49.342;10.802;2023-06-22T08:18:09;8.50;;;5.90;;
11151;SDS011;5630;49.342;10.802;2023-06-22T08:20:35;7.70;;;6.10;;
11151;SDS011;5630;49.342;10.802;2023-06-22T08:23:01;8.57;;;5.60;;
11151;SDS011;5630;49.342;10.802;2023-06-22T08:25:31;10.07;;;5.93;;
11151;SDS011;5630;49.342;10.802;2023-06-22T08:27:57;10.70;;;6.13;;
11151;SDS011;5630;49.342;10.802;2023-06-22T08:30:23;8.53;;;6.07;;
11151;SDS011;5630;49.342;10.802;2023-06-22T08:32:49;7.90;;;5.47;;
11151;SDS011;5630;49.342;10.802;2023-06-22T08:35:14;10.30;;;6.33;;
11151;SDS011;5630;49.342;10.802;2023-06-22T08:37:40;7.13;;;6.43;;
11151;SDS011;5630;49.342;10.802;2023-06-22T08:40:06;8.37;;;5.70;;
11151;SDS011;5630;49.342;10.802;2023-06-22T08:42:34;7.43;;;5.47;;
11151;SDS011;5630;49.342;10.802;2023-06-22T08:45:00;9.60;;;6.00;;
11151;SDS011;5630;49.342;10.802;2023-06-22T08:47:27;13.03;;;5.83;;
11151;SDS011;5630;49.342;10.802;2023-06-22T08:49:53;6.63;;;5.60;;
11151;SDS011;5630;49.342;10.802;2023-06-22T08:52:19;11.13;;;5.73;;
11151;SDS011;5630;49.342;10.802;2023-06-22T08:54:45;11.40;;;5.70;;
11151;SDS011;5630;49.342;10.802;2023-06-22T08:57:11;12.40;;;5.33;;
11151;SDS011;5630;49.342;10.802;2023-06-22T08:59:37;9.43;;;5.40;;
11151;SDS011;5630;49.342;10.802;2023-06-22T09:02:02;9.20;;;5.60;;
11151;SDS011;5630;49.342;10.802;2023-06-22T09:04:28;9.70;;;5.40;;
11151;SDS011;5630;49.342;10.802;2023-06-22T09:06:54;10.97;;;5.70;;
11151;SDS011;5630;49.342;10.802;2023-06-22T09:09:20;6.80;;;5.30;;
11151;SDS011;5630;49.342;10.802;2023-06-22T09:11:47;6.97;;;5.13;;
11151;SDS011;5630;49.342;10.802;2023-06-22T09:14:12;9.73;;;5.27;;
11151;SDS011;5630;49.342;10.802;2023-06-22T09:16:38;9.97;;;4.90;;
11151;SDS011;5630;49.342;10.802;2023-06-22T09:19:04;6.80;;;5.07;;
11151;SDS011;5630;49.342;10.802;2023-06-22T09:21:29;12.27;;;5.23;;
11151;SDS011;5630;49.342;10.802;2023-06-22T09:23:55;9.03;;;4.90;;
11151;SDS011;5630;49.342;10.802;2023-06-22T09:26:21;9.03;;;5.30;;
11151;SDS011;5630;49.342;10.802;2023-06-22T09:28:48;10.97;;;5.30;;
11151;SDS011;5630;49.342;10.802;2023-06-22T09:31:14;7.17;;;4.77;;
11151;SDS011;5630;49.342;10.802;2023-06-22T09:33:41;8.77;;;5.17;;
11151;SDS011;5630;49.342;10.802;2023-06-22T09:36:07;10.83;;;5.03;;
11151;SDS011;5630;49.342;10.802;2023-06-22T09:38:36;9.03;;;4.90;;
11151;SDS011;5630;49.342;10.802;2023-06-22T09:41:04;10.90;;;5.30;;
11151;SDS011;5630;49.342;10.802;2023-06-22T09:43:31;8.73;;;4.77;;
11151;SDS011;5630;49.342;10.802;2023-06-22T09:45:57;10.30;;;4.83;;
11151;SDS011;5630;49.342;10.802;2023-06-22T09:48:23;9.97;;;5.00;;
11151;SDS011;5630;49.342;10.802;2023-06-22T09:50:48;9.63;;;4.83;;
11151;SDS011;5630;49.342;10.802;2023-06-22T09:53:14;7.13;;;4.37;;
11151;SDS011;5630;49.342;10.802;2023-06-22T09:55:40;9.77;;;4.70;;
11151;SDS011;5630;49.342;10.802;2023-06-22T09:58:05;8.67;;;4.67;;
11151;SDS011;5630;49.342;10.802;2023-06-22T10:00:31;8.00;;;4.50;;
11151;SDS011;5630;49.342;10.802;2023-06-22T10:02:56;10.23;;;4.90;;
11151;SDS011;5630;49.342;10.802;2023-06-22T10:05:22;10.40;;;4.83;;
11151;SDS011;5630;49.342;10.802;2023-06-22T10:07:48;10.77;;;5.27;;
11151;SDS011;5630;49.342;10.802;2023-06-22T10:10:14;11.73;;;5.00;;
11151;SDS011;5630;49.342;10.802;2023-06-22T10:12:45;12.87;;;5.07;;
11151;SDS011;5630;49.342;10.802;2023-06-22T10:15:12;9.20;;;4.73;;
11151;SDS011;5630;49.342;10.802;2023-06-22T10:17:38;14.60;;;5.27;;
11151;SDS011;5630;49.342;10.802;2023-06-22T10:20:05;9.70;;;4.50;;
11151;SDS011;5630;49.342;10.802;2023-06-22T10:22:40;13.30;;;4.97;;
11151;SDS011;5630;49.342;10.802;2023-06-22T10:25:07;9.67;;;5.10;;
11151;SDS011;5630;49.342;10.802;2023-06-22T10:27:33;13.20;;;5.13;;
11151;SDS011;5630;49.342;10.802;2023-06-22T10:29:59;7.23;;;4.90;;
11151;SDS011;5630;49.342;10.802;2023-06-22T10:32:24;11.90;;;4.97;;
11151;SDS011;5630;49.342;10.802;2023-06-22T10:34:50;9.30;;;4.97;;
11151;SDS011;5630;49.342;10.802;2023-06-22T10:37:15;11.97;;;5.17;;
11151;SDS011;5630;49.342;10.802;2023-06-22T10:39:41;11.20;;;4.60;;
11151;SDS011;5630;49.342;10.802;2023-06-22T10:42:07;8.33;;;4.97;;
11151;SDS011;5630;49.342;10.802;2023-06-22T10:44:32;13.60;;;5.60;;
11151;SDS011;5630;49.342;10.802;2023-06-22T10:46:58;11.33;;;4.70;;
11151;SDS011;5630;49.342;10.802;2023-06-22T10:49:23;16.23;;;5.37;;
11151;SDS011;5630;49.342;10.802;2023-06-22T10:51:49;8.77;;;4.40;;
11151;SDS011;5630;49.342;10.802;2023-06-22T10:54:14;10.10;;;5.27;;
11151;SDS011;5630;49.342;10.802;2023-06-22T10:56:43;12.27;;;4.93;;
11151;SDS011;5630;49.342;10.802;2023-06-22T10:59:08;9.53;;;4.73;;
11151;SDS011;5630;49.342;10.802;2023-06-22T11:01:34;11.67;;;4.70;;
11151;SDS011;5630;49.342;10.802;2023-06-22T11:03:59;12.77;;;4.90;;
11151;SDS011;5630;49.342;10.802;2023-06-22T11:06:25;9.67;;;4.93;;
11151;SDS011;5630;49.342;10.802;2023-06-22T11:08:51;11.10;;;5.03;;
11151;SDS011;5630;49.342;10.802;2023-06-22T11:11:16;11.80;;;5.27;;
11151;SDS011;5630;49.342;10.802;2023-06-22T11:13:42;8.80;;;4.93;;
11151;SDS011;5630;49.342;10.802;2023-06-22T11:16:09;11.13;;;5.60;;
11151;SDS011;5630;49.342;10.802;2023-06-22T11:18:35;12.73;;;5.17;;
11151;SDS011;5630;49.342;10.802;2023-06-22T11:21:00;9.20;;;5.37;;
11151;SDS011;5630;49.342;10.802;2023-06-22T11:23:26;10.03;;;5.17;;
11151;SDS011;5630;49.342;10.802;2023-06-22T11:25:52;10.67;;;5.20;;
11151;SDS011;5630;49.342;10.802;2023-06-22T11:28:18;10.70;;;5.13;;
11151;SDS011;5630;49.342;10.802;2023-06-22T11:30:44;10.43;;;4.93;;
11151;SDS011;5630;49.342;10.802;2023-06-22T11:33:09;10.40;;;5.10;;
11151;SDS011;5630;49.342;10.802;2023-06-22T11:35:35;12.10;;;5.40;;
11151;SDS011;5630;49.342;10.802;2023-06-22T11:38:00;7.83;;;5.17;;
11151;SDS011;5630;49.342;10.802;2023-06-22T11:40:28;12.03;;;5.23;;
11151;SDS011;5630;49.342;10.802;2023-06-22T11:42:53;9.37;;;4.80;;
11151;SDS011;5630;49.342;10.802;2023-06-22T11:45:19;12.40;;;4.97;;
11151;SDS011;5630;49.342;10.802;2023-06-22T11:47:45;8.73;;;5.27;;
11151;SDS011;5630;49.342;10.802;2023-06-22T11:50:11;11.57;;;5.30;;
11151;SDS011;5630;49.342;10.802;2023-06-22T11:52:36;11.27;;;5.00;;
11151;SDS011;5630;49.342;10.802;2023-06-22T11:55:02;11.57;;;5.33;;
11151;SDS011;5630;49.342;10.802;2023-06-22T11:57:30;10.77;;;5.57;;
11151;SDS011;5630;49.342;10.802;2023-06-22T11:59:58;8.97;;;5.00;;
11151;SDS011;5630;49.342;10.802;2023-06-22T12:02:23;12.93;;;5.30;;
11151;SDS011;5630;49.342;10.802;2023-06-22T12:04:49;11.30;;;5.37;;
11151;SDS011;5630;49.342;10.802;2023-06-22T12:07:17;14.93;;;5.80;;
11151;SDS011;5630;49.342;10.802;2023-06-22T12:09:43;11.60;;;5.20;;
11151;SDS011;5630;49.342;10.802;2023-06-22T12:12:09;9.67;;;5.67;;
11151;SDS011;5630;49.342;10.802;2023-06-22T12:14:35;8.83;;;5.00;;
11151;SDS011;5630;49.342;10.802;2023-06-22T12:17:00;11.67;;;6.17;;
11151;SDS011;5630;49.342;10.802;2023-06-22T12:19:26;13.20;;;5.33;;
11151;SDS011;5630;49.342;10.802;2023-06-22T12:21:51;13.97;;;5.43;;
11151;SDS011;5630;49.342;10.802;2023-06-22T12:24:17;13.43;;;5.67;;
11151;SDS011;5630;49.342;10.802;2023-06-22T12:26:42;10.27;;;5.27;;
11151;SDS011;5630;49.342;10.802;2023-06-22T12:29:09;10.87;;;5.40;;
11151;SDS011;5630;49.342;10.802;2023-06-22T12:31:35;9.53;;;5.30;;
11151;SDS011;5630;49.342;10.802;2023-06-22T12:34:01;11.37;;;5.70;;
11151;SDS011;5630;49.342;10.802;2023-06-22T12:36:27;13.87;;;5.70;;
11151;SDS011;5630;49.342;10.802;2023-06-22T12:38:52;12.37;;;5.50;;
11151;SDS011;5630;49.342;10.802;2023-06-22T12:41:19;11.37;;;5.63;;
11151;SDS011;5630;49.342;10.802;2023-06-22T12:43:44;12.33;;;5.30;;
11151;SDS011;5630;49.342;10.802;2023-06-22T12:46:11;15.03;;;5.50;;
11151;SDS011;5630;49.342;10.802;2023-06-22T12:48:36;11.83;;;5.60;;
11151;SDS011;5630;49.342;10.802;2023-06-22T12:51:06;14.37;;;5.83;;
11151;SDS011;5630;49.342;10.802;2023-06-22T12:53:33;9.37;;;5.00;;
11151;SDS011;5630;49.342;10.802;2023-06-22T12:55:58;14.37;;;5.93;;
11151;SDS011;5630;49.342;10.802;2023-06-22T12:58:24;12.80;;;5.67;;
11151;SDS011;5630;49.342;10.802;2023-06-22T13:00:49;11.47;;;5.50;;
11151;SDS011;5630;49.342;10.802;2023-06-22T13:03:15;11.43;;;5.13;;
11151;SDS011;5630;49.342;10.802;2023-06-22T13:05:40;12.77;;;5.63;;
11151;SDS011;5630;49.342;10.802;2023-06-22T13:08:06;13.80;;;5.80;;
11151;SDS011;5630;49.342;10.802;2023-06-22T13:10:33;9.97;;;4.97;;
11151;SDS011;5630;49.342;10.802;2023-06-22T13:12:59;13.77;;;5.93;;
11151;SDS011;5630;49.342;10.802;2023-06-22T13:15:26;13.47;;;5.43;;
11151;SDS011;5630;49.342;10.802;2023-06-22T13:17:53;13.10;;;4.97;;
11151;SDS011;5630;49.342;10.802;2023-06-22T13:20:19;9.03;;;5.33;;
11151;SDS011;5630;49.342;10.802;2023-06-22T13:22:44;11.13;;;5.60;;
11151;SDS011;5630;49.342;10.802;2023-06-22T13:25:10;14.00;;;6.03;;
11151;SDS011;5630;49.342;10.802;2023-06-22T13:27:40;9.57;;;5.30;;
11151;SDS011;5630;49.342;10.802;2023-06-22T13:30:06;8.83;;;5.30;;
11151;SDS011;5630;49.342;10.802;2023-06-22T13:32:33;10.70;;;5.90;;
11151;SDS011;5630;49.342;10.802;2023-06-22T13:34:58;11.90;;;5.50;;
11151;SDS011;5630;49.342;10.802;2023-06-22T13:37:25;11.10;;;5.40;;
11151;SDS011;5630;49.342;10.802;2023-06-22T13:39:50;11.03;;;5.60;;
11151;SDS011;5630;49.342;10.802;2023-06-22T13:42:16;13.97;;;5.87;;
11151;SDS011;5630;49.342;10.802;2023-06-22T13:44:42;11.83;;;5.60;;
11151;SDS011;5630;49.342;10.802;2023-06-22T13:47:07;14.27;;;6.27;;
11151;SDS011;5630;49.342;10.802;2023-06-22T13:49:33;15.23;;;6.23;;
11151;SDS011;5630;49.342;10.802;2023-06-22T13:51:59;12.67;;;5.80;;
11151;SDS011;5630;49.342;10.802;2023-06-22T13:54:24;12.20;;;5.90;;
11151;SDS011;5630;49.342;10.802;2023-06-22T13:56:50;15.53;;;5.73;;
11151;SDS011;5630;49.342;10.802;2023-06-22T13:59:15;11.90;;;6.03;;
11151;SDS011;5630;49.342;10.802;2023-06-22T14:01:41;11.43;;;5.50;;
11151;SDS011;5630;49.342;10.802;2023-06-22T14:04:08;12.90;;;5.70;;
11151;SDS011;5630;49.342;10.802;2023-06-22T14:06:33;12.10;;;5.90;;
11151;SDS011;5630;49.342;10.802;2023-06-22T14:08:59;11.00;;;5.77;;
11151;SDS011;5630;49.342;10.802;2023-06-22T14:11:25;12.93;;;6.47;;
11151;SDS011;5630;49.342;10.802;2023-06-22T14:13:50;10.73;;;5.27;;
11151;SDS011;5630;49.342;10.802;2023-06-22T14:16:16;13.73;;;5.60;;
11151;SDS011;5630;49.342;10.802;2023-06-22T14:18:42;13.03;;;5.77;;
11151;SDS011;5630;49.342;10.802;2023-06-22T14:21:07;12.50;;;5.63;;
11151;SDS011;5630;49.342;10.802;2023-06-22T14:23:33;14.70;;;6.33;;
11151;SDS011;5630;49.342;10.802;2023-06-22T14:25:59;11.33;;;5.33;;
11151;SDS011;5630;49.342;10.802;2023-06-22T14:28:24;15.47;;;6.33;;
11151;SDS011;5630;49.342;10.802;2023-06-22T14:30:50;10.87;;;6.07;;
11151;SDS011;5630;49.342;10.802;2023-06-22T14:33:15;12.37;;;6.67;;
11151;SDS011;5630;49.342;10.802;2023-06-22T14:35:41;12.67;;;6.17;;
11151;SDS011;5630;49.342;10.802;2023-06-22T14:38:07;11.30;;;6.40;;
11151;SDS011;5630;49.342;10.802;2023-06-22T14:40:32;11.10;;;5.87;;